createdAt,value
2023-03-10T00:00:05.781Z,43.35
2023-03-10T00:02:34.861Z,42.40
2023-03-10T00:05:02.649Z,43.05
2023-03-10T00:07:29.755Z,41.35
2023-03-10T00:09:56.576Z,42.17
2023-03-10T00:12:23.349Z,43.13
2023-03-10T00:14:50.069Z,45.15
2023-03-10T00:17:16.844Z,38.08
2023-03-10T00:19:43.647Z,43.40
2023-03-10T00:22:10.346Z,45.72
2023-03-10T00:24:36.997Z,48.63
2023-03-10T00:27:03.798Z,46.90
2023-03-10T00:29:30.502Z,56.33
2023-03-10T00:31:57.163Z,48.90
2023-03-10T00:34:23.883Z,53.67
2023-03-10T00:36:50.637Z,55.05
2023-03-10T00:39:17.553Z,52.60
2023-03-10T00:41:44.295Z,49.78
2023-03-10T00:44:11.680Z,53.45
2023-03-10T00:46:38.940Z,51.50
2023-03-10T00:49:07.536Z,51.90
2023-03-10T00:51:35.653Z,53.30
2023-03-10T00:54:03.254Z,54.10
2023-03-10T00:56:31.043Z,59.35
2023-03-10T00:59:00.593Z,58.25
2023-03-10T01:01:30.959Z,62.67
2023-03-10T01:04:00.702Z,56.78
2023-03-10T01:06:27.983Z,58.05
2023-03-10T01:08:54.896Z,56.45
2023-03-10T01:11:24.935Z,57.10
2023-03-10T01:13:52.701Z,62.92
2023-03-10T01:16:19.618Z,63.17
2023-03-10T01:18:46.422Z,61.72
2023-03-10T01:21:24.838Z,56.05
2023-03-10T01:23:52.233Z,59.63
2023-03-10T01:26:19.647Z,61.53
2023-03-10T01:28:47.647Z,54.50
2023-03-10T01:31:15.284Z,58.58
2023-03-10T01:33:43.621Z,63.00
2023-03-10T01:36:12.010Z,60.22
2023-03-10T01:38:39.524Z,60.47
2023-03-10T01:41:06.743Z,53.88
2023-03-10T01:43:36.245Z,54.83
2023-03-10T01:46:06.005Z,65.47
2023-03-10T01:48:36.053Z,54.13
2023-03-10T01:51:03.724Z,58.88
2023-03-10T01:53:30.654Z,56.35
2023-03-10T01:56:02.960Z,60.30
2023-03-10T01:58:42.477Z,56.13
2023-03-10T02:01:11.695Z,54.17
2023-03-10T02:03:46.322Z,55.40
2023-03-10T02:06:16.490Z,52.17
2023-03-10T02:08:47.570Z,59.60
2023-03-10T02:11:15.036Z,55.78
2023-03-10T02:13:41.758Z,59.90
2023-03-10T02:16:08.847Z,50.40
2023-03-10T02:18:35.794Z,52.53
2023-03-10T02:21:12.066Z,54.22
2023-03-10T02:24:00.910Z,53.13
2023-03-10T02:26:59.571Z,46.58
2023-03-10T02:29:52.423Z,52.72
2023-03-10T02:32:25.718Z,47.95
2023-03-10T02:34:52.624Z,51.78
2023-03-10T02:37:21.867Z,52.42
2023-03-10T02:39:48.633Z,52.58
2023-03-10T02:42:15.534Z,50.85
2023-03-10T02:44:43.394Z,50.10
2023-03-10T02:47:10.939Z,54.05
2023-03-10T02:49:37.816Z,55.10
2023-03-10T02:52:09.978Z,49.35
2023-03-10T02:54:36.797Z,56.40
2023-03-10T02:57:03.637Z,54.63
2023-03-10T02:59:30.461Z,56.58
2023-03-10T03:01:57.268Z,60.40
2023-03-10T03:04:24.079Z,54.95
2023-03-10T03:06:50.734Z,56.35
2023-03-10T03:09:17.422Z,53.60
2023-03-10T03:11:44.228Z,55.70
2023-03-10T03:14:10.915Z,56.30
2023-03-10T03:16:37.741Z,57.22
2023-03-10T03:19:04.492Z,62.80
2023-03-10T03:21:31.359Z,56.67
2023-03-10T03:23:58.645Z,53.55
2023-03-10T03:26:27.033Z,54.65
2023-03-10T03:28:53.827Z,58.35
2023-03-10T03:31:22.889Z,61.80
2023-03-10T03:33:49.807Z,51.35
2023-03-10T03:36:16.857Z,52.10
2023-03-10T03:38:43.630Z,54.85
2023-03-10T03:41:10.833Z,51.83
2023-03-10T03:43:37.622Z,53.13
2023-03-10T03:46:04.953Z,53.30
2023-03-10T03:48:31.713Z,51.78
2023-03-10T03:50:58.406Z,52.88
2023-03-10T03:53:25.121Z,59.55
2023-03-10T03:55:51.840Z,57.67
2023-03-10T03:58:18.827Z,53.05
2023-03-10T04:00:45.587Z,53.28
2023-03-10T04:03:12.508Z,56.47
2023-03-10T04:05:39.477Z,51.33
2023-03-10T04:08:06.938Z,52.45
2023-03-10T04:10:34.229Z,48.13
2023-03-10T04:13:00.921Z,52.75
2023-03-10T04:15:28.194Z,49.90
2023-03-10T04:17:55.028Z,51.33
2023-03-10T04:20:21.770Z,50.33
2023-03-10T04:22:48.596Z,50.40
2023-03-10T04:25:15.257Z,53.60
2023-03-10T04:27:41.941Z,54.63
2023-03-10T04:30:10.162Z,57.47
2023-03-10T04:32:36.949Z,53.13
2023-03-10T04:35:05.030Z,57.58
2023-03-10T04:37:31.854Z,52.55
2023-03-10T04:39:58.602Z,55.50
2023-03-10T04:42:27.518Z,56.95
2023-03-10T04:44:54.304Z,54.88
2023-03-10T04:47:20.991Z,53.03
2023-03-10T04:49:47.655Z,52.35
2023-03-10T04:52:14.540Z,56.83
2023-03-10T04:54:41.426Z,52.85
2023-03-10T04:57:08.290Z,58.00
2023-03-10T04:59:35.136Z,52.05
2023-03-10T05:02:01.911Z,55.78
2023-03-10T05:04:28.800Z,56.55
2023-03-10T05:06:55.574Z,49.95
2023-03-10T05:09:22.281Z,50.38
2023-03-10T05:11:49.053Z,50.20
2023-03-10T05:14:16.617Z,58.80
2023-03-10T05:16:43.704Z,51.22
2023-03-10T05:19:10.509Z,56.78
2023-03-10T05:21:37.386Z,49.67
2023-03-10T05:24:04.376Z,52.15
2023-03-10T05:26:33.529Z,61.22
2023-03-10T05:29:01.505Z,54.58
2023-03-10T05:31:28.321Z,57.05
2023-03-10T05:33:55.110Z,49.03
2023-03-10T05:36:22.388Z,59.90
2023-03-10T05:38:49.671Z,51.92
2023-03-10T05:41:16.627Z,54.20
2023-03-10T05:43:43.458Z,52.55
2023-03-10T05:46:11.527Z,50.45
2023-03-10T05:48:38.863Z,53.50
2023-03-10T05:51:11.822Z,56.13
2023-03-10T05:53:39.537Z,53.38
2023-03-10T05:56:12.373Z,48.60
2023-03-10T05:58:39.347Z,55.05
2023-03-10T06:01:07.086Z,53.55
2023-03-10T06:03:34.557Z,55.55
2023-03-10T06:06:01.797Z,54.85
2023-03-10T06:08:29.013Z,56.45
2023-03-10T06:10:56.590Z,53.45
2023-03-10T06:13:24.026Z,55.35
2023-03-10T06:15:56.183Z,54.30
2023-03-10T06:18:23.346Z,55.50
2023-03-10T06:20:50.231Z,50.90
2023-03-10T06:23:17.948Z,52.63
2023-03-10T06:25:45.161Z,55.88
2023-03-10T06:28:12.553Z,55.72
2023-03-10T06:30:39.288Z,51.78
2023-03-10T06:33:06.098Z,52.47
2023-03-10T06:35:33.025Z,53.17
2023-03-10T06:38:00.169Z,54.13
2023-03-10T06:40:26.902Z,57.60
2023-03-10T06:42:53.599Z,58.42
2023-03-10T06:45:20.445Z,50.10
2023-03-10T06:47:47.226Z,55.35
2023-03-10T06:50:14.154Z,53.70
2023-03-10T06:52:42.540Z,55.35
2023-03-10T06:55:10.790Z,56.97
2023-03-10T06:57:37.846Z,53.83
2023-03-10T07:00:05.639Z,55.63
2023-03-10T07:02:32.423Z,54.08
2023-03-10T07:04:59.338Z,54.95
2023-03-10T07:07:26.222Z,58.20
2023-03-10T07:09:52.974Z,52.95
2023-03-10T07:12:19.628Z,58.45
2023-03-10T07:14:46.461Z,62.58
2023-03-10T07:17:13.296Z,58.92
2023-03-10T07:19:40.162Z,51.00
2023-03-10T07:22:06.982Z,56.50
2023-03-10T07:24:34.235Z,59.22
2023-03-10T07:27:01.734Z,53.63
2023-03-10T07:29:28.873Z,55.38
2023-03-10T07:31:56.082Z,52.00
2023-03-10T07:34:23.005Z,51.75
2023-03-10T07:36:49.786Z,57.55
2023-03-10T07:39:16.567Z,55.58
2023-03-10T07:41:43.271Z,52.70
2023-03-10T07:44:09.997Z,54.85
2023-03-10T07:46:36.738Z,57.38
2023-03-10T07:49:06.794Z,54.60
2023-03-10T07:51:34.108Z,52.75
2023-03-10T07:54:01.134Z,54.40
2023-03-10T07:56:27.928Z,55.42
2023-03-10T07:58:54.619Z,49.08
2023-03-10T08:01:22.306Z,51.50
2023-03-10T08:03:49.812Z,49.20
2023-03-10T08:06:24.773Z,53.33
2023-03-10T08:08:52.147Z,52.15
2023-03-10T08:11:19.319Z,46.08
2023-03-10T08:13:47.640Z,51.13
2023-03-10T08:16:16.396Z,57.20
2023-03-10T08:18:43.642Z,52.00
2023-03-10T08:21:10.577Z,48.72
2023-03-10T08:23:38.245Z,47.67
2023-03-10T08:26:08.217Z,52.88
2023-03-10T08:28:37.594Z,53.03
2023-03-10T08:31:16.047Z,49.85
2023-03-10T08:33:44.079Z,57.08
2023-03-10T08:36:20.059Z,51.97
2023-03-10T08:38:48.252Z,47.85
2023-03-10T08:41:18.735Z,44.50
2023-03-10T08:43:48.890Z,44.58
2023-03-10T08:46:17.058Z,51.08
2023-03-10T08:48:43.846Z,47.00
2023-03-10T08:51:13.118Z,47.28
2023-03-10T08:53:41.901Z,43.95
2023-03-10T08:56:08.599Z,45.60
2023-03-10T08:58:35.463Z,46.63
2023-03-10T09:01:02.394Z,50.65
2023-03-10T09:03:31.662Z,44.58
2023-03-10T09:05:58.921Z,50.22
2023-03-10T09:08:27.518Z,41.70
2023-03-10T09:10:54.790Z,46.03
2023-03-10T09:13:21.799Z,46.65
2023-03-10T09:15:48.698Z,45.08
2023-03-10T09:18:15.972Z,48.35
2023-03-10T09:20:43.752Z,45.65
2023-03-10T09:23:15.960Z,44.85
2023-03-10T09:25:42.828Z,47.78
2023-03-10T09:28:11.598Z,44.70
2023-03-10T09:30:40.990Z,52.15
2023-03-10T09:33:15.026Z,45.33
2023-03-10T09:35:52.556Z,49.15
2023-03-10T09:38:19.744Z,46.67
2023-03-10T09:40:53.733Z,46.95
2023-03-10T09:43:23.147Z,44.10
2023-03-10T09:46:10.017Z,46.53
2023-03-10T09:49:04.035Z,44.30
2023-03-10T09:51:30.852Z,40.75
2023-03-10T09:54:11.594Z,39.20
2023-03-10T09:56:39.085Z,45.00
2023-03-10T09:59:11.240Z,42.45
2023-03-10T10:01:44.311Z,46.78
2023-03-10T10:04:12.785Z,44.55
2023-03-10T10:06:44.316Z,52.85
2023-03-10T10:09:29.055Z,44.38
2023-03-10T10:11:56.186Z,44.15
2023-03-10T10:14:30.846Z,49.35
2023-03-10T10:17:22.353Z,42.45
2023-03-10T10:19:49.943Z,36.80
2023-03-10T10:22:25.586Z,43.10
2023-03-10T10:25:17.938Z,40.05
2023-03-10T10:27:46.009Z,37.67
2023-03-10T10:30:27.765Z,39.15
2023-03-10T10:33:05.077Z,36.70
2023-03-10T10:35:40.756Z,42.28
2023-03-10T10:38:10.631Z,36.38
2023-03-10T10:41:00.256Z,41.55
2023-03-10T10:43:27.354Z,32.47
2023-03-10T10:46:04.336Z,35.97
2023-03-10T10:48:45.093Z,37.28
2023-03-10T10:51:30.066Z,49.53
2023-03-10T10:53:58.639Z,30.33
2023-03-10T10:56:28.630Z,37.13
2023-03-10T10:59:22.245Z,35.45
2023-03-10T11:01:58.366Z,31.45
2023-03-10T11:04:28.319Z,26.58
2023-03-10T11:07:10.672Z,30.73
2023-03-10T11:09:38.429Z,23.13
2023-03-10T11:12:11.659Z,25.10
2023-03-10T11:14:52.513Z,25.85
2023-03-10T11:17:27.495Z,20.45
2023-03-10T11:20:16.122Z,18.67
2023-03-10T11:22:49.505Z,23.73
2023-03-10T11:26:01.291Z,20.85
2023-03-10T11:28:33.855Z,25.83
2023-03-10T11:31:10.085Z,25.67
2023-03-10T11:33:50.390Z,23.55
2023-03-10T11:36:28.829Z,25.85
2023-03-10T11:39:08.758Z,34.22
2023-03-10T11:41:39.755Z,27.77
2023-03-10T11:44:29.012Z,28.45
2023-03-10T11:47:15.655Z,25.45
2023-03-10T11:49:45.739Z,29.77
2023-03-10T11:52:19.160Z,24.50
2023-03-10T11:54:49.983Z,31.15
2023-03-10T11:57:22.113Z,25.52
2023-03-10T12:00:05.728Z,31.27
2023-03-10T12:02:52.998Z,27.85
2023-03-10T12:05:27.164Z,28.35
2023-03-10T12:07:58.247Z,27.25
2023-03-10T12:10:25.690Z,29.13
2023-03-10T12:12:54.051Z,27.50
2023-03-10T12:15:25.086Z,25.90
2023-03-10T12:17:53.945Z,22.45
2023-03-10T12:20:20.577Z,22.52
2023-03-10T12:22:59.395Z,24.67
2023-03-10T12:25:29.199Z,27.80
2023-03-10T12:28:17.595Z,35.17
2023-03-10T12:30:59.056Z,23.00
2023-03-10T12:33:37.277Z,26.08
2023-03-10T12:36:27.716Z,27.95
2023-03-10T12:38:57.865Z,29.65
2023-03-10T12:41:27.681Z,27.65
2023-03-10T12:43:57.543Z,29.33
2023-03-10T12:46:29.323Z,27.08
2023-03-10T12:49:14.139Z,24.55
2023-03-10T12:51:44.390Z,27.27
2023-03-10T12:54:28.858Z,25.88
2023-03-10T12:57:10.019Z,22.63
2023-03-10T13:00:01.582Z,25.58
2023-03-10T13:02:55.578Z,25.10
2023-03-10T13:05:32.895Z,24.55
2023-03-10T13:08:34.863Z,32.05
2023-03-10T13:11:02.602Z,32.53
2023-03-10T13:13:33.101Z,28.33
2023-03-10T13:16:03.260Z,28.27
2023-03-10T13:18:30.655Z,27.77
2023-03-10T13:21:01.591Z,23.20
2023-03-10T13:23:34.292Z,31.27
2023-03-10T13:26:09.014Z,28.85
2023-03-10T13:28:36.533Z,34.22
2023-03-10T13:31:15.260Z,27.92
2023-03-10T13:33:52.921Z,28.67
2023-03-10T13:36:40.228Z,32.13
2023-03-10T13:39:16.247Z,31.75
2023-03-10T13:41:54.433Z,34.25
2023-03-10T13:44:33.720Z,28.35
2023-03-10T13:47:04.408Z,24.50
2023-03-10T13:49:34.182Z,28.75
2023-03-10T13:52:04.872Z,29.55
2023-03-10T13:54:37.073Z,26.23
2023-03-10T13:57:13.476Z,27.30
2023-03-10T13:59:40.584Z,27.75
2023-03-10T14:02:28.240Z,28.80
2023-03-10T14:04:55.769Z,26.83
2023-03-10T14:07:30.928Z,27.30
2023-03-10T14:10:07.848Z,22.63
2023-03-10T14:12:55.097Z,21.70
2023-03-10T14:15:38.771Z,24.27
2023-03-10T14:18:08.311Z,24.52
2023-03-10T14:20:39.013Z,25.33
2023-03-10T14:23:23.750Z,33.22
2023-03-10T14:25:55.772Z,31.17
2023-03-10T14:28:30.128Z,29.15
2023-03-10T14:30:57.325Z,29.85
2023-03-10T14:33:24.475Z,27.42
2023-03-10T14:35:51.241Z,29.50
2023-03-10T14:38:18.194Z,25.65
2023-03-10T14:40:48.212Z,27.83
2023-03-10T14:43:22.331Z,38.20
2023-03-10T14:45:50.719Z,31.25
2023-03-10T14:48:21.264Z,27.83
2023-03-10T14:50:48.870Z,33.10
2023-03-10T14:53:21.288Z,33.72
2023-03-10T14:55:51.864Z,35.35
2023-03-10T14:58:22.502Z,31.08
2023-03-10T15:00:50.746Z,35.10
2023-03-10T15:03:17.644Z,33.55
2023-03-10T15:05:48.589Z,31.38
2023-03-10T15:08:16.805Z,33.33
2023-03-10T15:10:48.234Z,31.38
2023-03-10T15:13:16.784Z,34.08
2023-03-10T15:15:47.656Z,37.90
2023-03-10T15:18:16.905Z,23.10
2023-03-10T15:20:43.756Z,21.30
2023-03-10T15:23:13.017Z,19.10
2023-03-10T15:25:41.991Z,22.05
2023-03-10T15:28:10.709Z,20.23
2023-03-10T15:30:37.546Z,21.20
2023-03-10T15:33:04.916Z,21.27
2023-03-10T15:35:32.150Z,19.00
2023-03-10T15:37:59.172Z,29.05
2023-03-10T15:40:29.016Z,21.25
2023-03-10T15:42:57.256Z,23.50
2023-03-10T15:45:26.508Z,17.98
2023-03-10T15:47:53.317Z,19.42
2023-03-10T15:50:21.116Z,20.10
2023-03-10T15:52:56.259Z,19.08
2023-03-10T15:55:23.656Z,12.10
2023-03-10T15:57:50.607Z,17.42
2023-03-10T16:00:20.634Z,18.73
2023-03-10T16:02:48.429Z,12.73
2023-03-10T16:05:15.581Z,16.90
2023-03-10T16:07:42.353Z,14.15
2023-03-10T16:10:10.881Z,16.60
2023-03-10T16:12:37.662Z,10.93
2023-03-10T16:15:05.169Z,15.07
2023-03-10T16:17:31.855Z,15.20
2023-03-10T16:20:01.944Z,16.80
2023-03-10T16:22:28.820Z,13.20
2023-03-10T16:24:55.669Z,9.90
2023-03-10T16:27:22.468Z,10.70
2023-03-10T16:29:49.182Z,12.32
2023-03-10T16:32:17.669Z,12.15
2023-03-10T16:34:44.547Z,14.40
2023-03-10T16:37:11.365Z,12.45
2023-03-10T16:39:38.041Z,11.52
2023-03-10T16:42:04.969Z,14.10
2023-03-10T16:44:31.742Z,13.02
2023-03-10T16:46:58.484Z,16.05
2023-03-10T16:49:25.303Z,11.57
2023-03-10T16:51:52.107Z,10.18
2023-03-10T16:54:22.540Z,8.45
2023-03-10T16:56:51.720Z,14.93
2023-03-10T16:59:24.713Z,11.70
2023-03-10T17:01:51.822Z,11.43
2023-03-10T17:04:19.149Z,14.02
2023-03-10T17:06:47.583Z,11.63
2023-03-10T17:09:15.439Z,11.10
2023-03-10T17:11:46.563Z,9.75
2023-03-10T17:14:15.734Z,11.50
2023-03-10T17:16:43.559Z,10.55
2023-03-10T17:19:16.164Z,13.90
2023-03-10T17:21:45.876Z,11.20
2023-03-10T17:24:14.526Z,13.65
2023-03-10T17:26:41.725Z,7.38
2023-03-10T17:29:09.196Z,9.38
2023-03-10T17:31:36.685Z,11.52
2023-03-10T17:34:06.810Z,12.55
2023-03-10T17:36:34.321Z,13.57
2023-03-10T17:39:02.622Z,12.38
2023-03-10T17:41:30.214Z,15.30
2023-03-10T17:43:56.963Z,17.98
2023-03-10T17:46:27.233Z,13.25
2023-03-10T17:48:54.192Z,13.20
2023-03-10T17:51:23.565Z,12.50
2023-03-10T17:53:51.215Z,15.00
2023-03-10T17:56:18.242Z,12.68
2023-03-10T17:58:45.435Z,11.80
2023-03-10T18:01:15.170Z,14.23
2023-03-10T18:03:41.930Z,12.85
2023-03-10T18:06:22.846Z,11.80
2023-03-10T18:08:50.770Z,15.40
2023-03-10T18:11:19.870Z,20.63
2023-03-10T18:13:46.953Z,15.73
2023-03-10T18:16:35.482Z,15.52
2023-03-10T18:19:02.229Z,17.05
2023-03-10T18:21:29.024Z,20.83
2023-03-10T18:23:56.058Z,17.92
2023-03-10T18:26:27.343Z,13.27
2023-03-10T18:28:54.162Z,16.83
2023-03-10T18:31:26.607Z,17.42
2023-03-10T18:33:53.398Z,17.23
2023-03-10T18:36:21.134Z,14.20
2023-03-10T18:38:48.920Z,12.77
2023-03-10T18:41:23.062Z,18.05
2023-03-10T18:43:50.149Z,14.30
2023-03-10T18:46:17.133Z,17.58
2023-03-10T18:48:44.021Z,20.20
2023-03-10T18:51:11.724Z,20.15
2023-03-10T18:53:39.307Z,12.85
2023-03-10T18:56:06.569Z,7.53
2023-03-10T18:58:33.411Z,9.77
2023-03-10T19:01:00.175Z,5.57
2023-03-10T19:03:30.987Z,6.65
2023-03-10T19:05:58.230Z,12.02
2023-03-10T19:08:27.032Z,12.10
2023-03-10T19:10:55.958Z,5.45
2023-03-10T19:13:23.650Z,5.35
2023-03-10T19:15:50.445Z,4.50
2023-03-10T19:18:17.215Z,3.72
2023-03-10T19:20:43.983Z,4.40
2023-03-10T19:23:10.715Z,4.65
2023-03-10T19:25:37.452Z,5.28
2023-03-10T19:28:04.413Z,7.75
2023-03-10T19:30:33.821Z,5.28
2023-03-10T19:33:00.594Z,5.32
2023-03-10T19:35:27.477Z,5.90
2023-03-10T19:37:54.495Z,4.88
2023-03-10T19:40:22.964Z,15.27
2023-03-10T19:42:49.831Z,11.40
2023-03-10T19:45:17.923Z,13.98
2023-03-10T19:47:45.378Z,11.15
2023-03-10T19:50:15.727Z,4.63
2023-03-10T19:52:47.577Z,4.38
2023-03-10T19:55:20.250Z,4.28
2023-03-10T19:57:48.574Z,5.20
2023-03-10T20:00:17.285Z,3.70
2023-03-10T20:02:44.818Z,3.80
2023-03-10T20:05:14.349Z,4.45
2023-03-10T20:07:42.543Z,6.22
2023-03-10T20:10:10.624Z,9.02
2023-03-10T20:12:37.292Z,5.65
2023-03-10T20:15:05.205Z,6.03
2023-03-10T20:17:32.229Z,3.78
2023-03-10T20:19:59.012Z,2.78
2023-03-10T20:22:25.764Z,3.88
2023-03-10T20:24:52.855Z,8.30
2023-03-10T20:27:19.696Z,3.50
2023-03-10T20:29:46.401Z,5.22
2023-03-10T20:32:13.225Z,5.30
2023-03-10T20:34:41.238Z,5.63
2023-03-10T20:37:08.371Z,3.38
2023-03-10T20:39:35.218Z,3.10
2023-03-10T20:42:02.010Z,5.22
2023-03-10T20:44:28.738Z,2.53
2023-03-10T20:46:55.490Z,1.77
2023-03-10T20:49:22.265Z,2.72
2023-03-10T20:51:48.994Z,1.95
2023-03-10T20:54:15.858Z,1.70
2023-03-10T20:56:42.628Z,5.07
2023-03-10T20:59:09.468Z,5.45
2023-03-10T21:01:39.883Z,9.60
2023-03-10T21:04:06.860Z,3.20
2023-03-10T21:06:33.757Z,3.15
2023-03-10T21:09:05.771Z,6.07
2023-03-10T21:11:35.804Z,1.98
2023-03-10T21:14:02.803Z,1.98
2023-03-10T21:16:29.705Z,2.38
2023-03-10T21:18:56.569Z,3.47
2023-03-10T21:21:23.349Z,3.40
2023-03-10T21:23:50.303Z,3.10
2023-03-10T21:26:20.108Z,5.20
2023-03-10T21:28:47.308Z,3.28
2023-03-10T21:31:14.921Z,3.28
2023-03-10T21:33:41.791Z,5.90
2023-03-10T21:36:15.738Z,5.78
2023-03-10T21:38:42.557Z,4.38
2023-03-10T21:41:10.733Z,2.22
2023-03-10T21:43:37.573Z,1.88
2023-03-10T21:46:04.565Z,1.05
2023-03-10T21:48:31.318Z,2.95
2023-03-10T21:50:58.106Z,4.28
2023-03-10T21:53:26.611Z,3.42
2023-03-10T21:55:54.272Z,2.00
2023-03-10T21:58:23.522Z,2.38
2023-03-10T22:00:50.805Z,1.95
2023-03-10T22:03:18.050Z,3.15
2023-03-10T22:05:44.992Z,3.30
2023-03-10T22:08:11.778Z,4.43
2023-03-10T22:10:38.596Z,1.25
2023-03-10T22:13:05.392Z,2.28
2023-03-10T22:15:32.068Z,2.95
2023-03-10T22:17:59.550Z,1.27
2023-03-10T22:20:27.556Z,3.75
2023-03-10T22:22:54.936Z,1.83
2023-03-10T22:25:21.998Z,1.73
2023-03-10T22:27:51.310Z,1.90
2023-03-10T22:30:19.742Z,1.95
2023-03-10T22:32:46.873Z,2.40
2023-03-10T22:35:14.214Z,2.42
2023-03-10T22:37:41.265Z,2.53
2023-03-10T22:40:12.510Z,1.50
2023-03-10T22:42:39.840Z,2.63
2023-03-10T22:45:14.467Z,2.67
2023-03-10T22:47:41.163Z,8.37
2023-03-10T22:50:08.599Z,8.82
2023-03-10T22:52:35.237Z,4.00
2023-03-10T22:55:01.983Z,3.50
2023-03-10T22:57:28.701Z,2.67
2023-03-10T22:59:55.346Z,2.15
2023-03-10T23:02:22.121Z,2.92
2023-03-10T23:04:48.814Z,6.55
2023-03-10T23:07:15.506Z,1.80
2023-03-10T23:09:42.245Z,3.00
2023-03-10T23:12:09.411Z,1.38
2023-03-10T23:14:36.139Z,2.25
2023-03-10T23:17:04.165Z,3.90
2023-03-10T23:19:30.879Z,2.88
2023-03-10T23:21:57.619Z,2.17
2023-03-10T23:24:24.488Z,2.83
2023-03-10T23:26:51.181Z,1.45
2023-03-10T23:29:17.965Z,5.43
2023-03-10T23:31:44.783Z,2.28
2023-03-10T23:34:11.534Z,2.85
2023-03-10T23:36:38.269Z,4.03
2023-03-10T23:39:05.440Z,4.03
2023-03-10T23:41:32.178Z,2.30
2023-03-10T23:43:58.988Z,1.52
2023-03-10T23:46:25.708Z,2.53
2023-03-10T23:48:52.405Z,3.22
2023-03-10T23:51:19.172Z,1.60
2023-03-10T23:53:46.268Z,3.40
2023-03-10T23:56:13.232Z,1.92
2023-03-10T23:58:40.283Z,3.65
